Latest Weather Observations for Mount Lofty

IDS60801

Issued at 12:01 am CST Saturday 29 August 2015 (issued every 30 minutes, with the page automatically refreshed every 10 minutes)

About weather observations | Map of weather stations | Latest weather observations for SA | Other Formats
Station Details ID: 023842 Name: MOUNT LOFTY Lat: -34.98 Lon: 138.71 Height: 685.0 m
Data from the previous 72 hours. | See also: Recent months at Mount Lofty
Date/Time
CST
Temp
°C
App
Temp
°C
Dew
Point
Rel
Hum
%
Delta-T
°C
Wind Press
QNH
hPa
Press
MSL
hPa
Rain
since 9 am
mm
Dir
 
Spd
km/h
Gust
km/h
Spd
kts
Gust
kts
29/12:00am 4.8 2.8 4.4 97 0.2 ESE 4 6 2 3 - - 0.4
 
Date/Time
CST
Temp
°C
App
Temp
°C
Dew
Point
Rel
Hum
%
Delta-T
°C
Wind Press
QNH
hPa
Press
MSL
hPa
Rain
since 9 am
mm
Dir
 
Spd
km/h
Gust
km/h
Spd
kts
Gust
kts
28/11:30pm 4.5 2.4 4.1 97 0.2 SE 4 11 2 6 - - 0.4
28/11:00pm 3.8 1.2 3.2 96 0.3 ESE 6 7 3 4 - - 0.2
28/10:30pm 3.4 0.7 2.7 95 0.3 ESE 6 11 3 6 - - 0.2
28/10:00pm 3.3 0.3 2.3 93 0.4 ESE 7 13 4 7 - - 0.2
28/09:30pm 3.6 0.6 2.0 89 0.7 ESE 7 11 4 6 - - 0.2
28/09:00pm 3.4 0.4 2.1 91 0.5 ESE 7 11 4 6 - - 0.2
28/08:30pm 3.5 0.5 2.0 90 0.6 ESE 7 13 4 7 - - 0.2
28/08:00pm 3.9 1.0 2.4 90 0.6 ESE 7 15 4 8 - - 0.2
28/07:30pm 4.0 1.3 2.7 91 0.5 SE 6 11 3 6 - - 0.2
28/07:00pm 4.0 1.3 2.8 92 0.5 ESE 6 13 3 7 - - 0.2
28/06:30pm 4.2 1.5 2.7 90 0.6 ESE 6 11 3 6 - - 0.2
28/06:00pm 4.6 1.9 2.9 89 0.7 SE 6 11 3 6 - - 0.2
28/05:30pm 5.5 3.0 3.5 87 0.9 SE 6 17 3 9 - - 0.2
28/05:00pm 6.5 4.6 4.8 89 0.8 SE 4 9 2 5 - - 0.2
28/04:30pm 6.8 4.9 5.1 89 0.8 SE 4 9 2 5 - - 0.2
28/04:00pm 6.9 4.7 5.1 88 0.8 ESE 6 9 3 5 - - 0.2
28/03:30pm 6.6 4.7 5.1 90 0.7 SE 4 7 2 4 - - 0.2
28/03:00pm 6.3 4.0 4.9 91 0.6 SSE 6 11 3 6 - - 0.2
28/02:30pm 6.9 4.7 5.4 90 0.7 SE 6 13 3 7 - - 0.2
28/02:00pm 7.0 5.2 5.2 88 0.8 SE 4 7 2 4 - - 0.2
28/01:30pm 7.2 5.3 5.0 86 1.0 SE 4 6 2 3 - - 0.2
28/01:00pm 6.9 5.1 5.5 91 0.6 E 4 7 2 4 - - 0.2
28/12:30pm 6.5 4.8 5.8 95 0.3 ESE 4 9 2 5 - - 0.2
28/12:00pm 6.8 5.2 6.4 97 0.2 ESE 4 9 2 5 - - 0.2
28/11:30am 6.6 5.0 6.3 98 0.1 SE 4 6 2 3 - - 0.2
28/11:00am 6.5 4.9 6.2 98 0.1 SE 4 7 2 4 - - 0.2
28/10:30am 6.0 3.9 5.7 98 0.1 SE 6 13 3 7 - - 0.2
28/10:00am 5.8 3.6 5.5 98 0.1 SSE 6 9 3 5 - - 0.2
28/09:30am 5.6 3.2 5.3 98 0.1 SE 7 15 4 8 - - 0.0
28/09:00am 5.6 3.2 5.3 98 0.1 SE 7 19 4 10 - - 4.4
28/08:30am 5.7 3.3 5.4 98 0.1 SE 7 15 4 8 - - 4.2
28/08:00am 5.4 3.0 5.1 98 0.1 SE 7 19 4 10 - - 4.2
28/07:30am 5.3 2.8 5.0 98 0.1 SE 7 17 4 9 - - 4.0
28/07:00am 5.2 2.7 4.9 98 0.1 SE 7 20 4 11 - - 4.0
28/06:30am 5.1 2.2 4.8 98 0.1 SE 9 17 5 9 - - 4.0
28/06:00am 5.2 2.9 4.9 98 0.1 SE 6 13 3 7 - - 3.6
28/05:30am 5.5 3.3 5.2 98 0.1 SSE 6 19 3 10 - - 3.4
28/05:00am 5.4 3.2 5.1 98 0.1 SE 6 11 3 6 - - 3.0
28/04:30am 5.2 2.7 4.9 98 0.1 ESE 7 17 4 9 - - 2.6
28/04:00am 5.3 2.1 5.0 98 0.1 ESE 11 20 6 11 - - 2.6
28/03:30am 5.5 2.7 5.2 98 0.1 ESE 9 19 5 10 - - 2.6
28/03:00am 5.7 3.0 5.4 98 0.1 ESE 9 20 5 11 - - 2.6
28/02:30am 5.7 1.8 5.4 98 0.1 ESE 15 24 8 13 - - 2.6
28/02:00am 5.7 1.8 5.4 98 0.1 ESE 15 24 8 13 - - 2.6
28/01:30am 5.6 1.3 5.3 98 0.1 ESE 17 30 9 16 - - 2.6
28/01:00am 5.6 2.4 5.3 98 0.1 ESE 11 20 6 11 - - 2.4
28/12:30am 5.5 2.3 5.2 98 0.1 SE 11 24 6 13 - - 2.4
28/12:00am 5.4 2.6 5.1 98 0.1 SE 9 20 5 11 - - 2.2
 
Date/Time
CST
Temp
°C
App
Temp
°C
Dew
Point
Rel
Hum
%
Delta-T
°C
Wind Press
QNH
hPa
Press
MSL
hPa
Rain
since 9 am
mm
Dir
 
Spd
km/h
Gust
km/h
Spd
kts
Gust
kts
27/11:30pm 5.1 2.6 4.8 98 0.1 SE 7 17 4 9 - - 2.0
27/11:00pm 5.1 2.2 4.7 97 0.2 SE 9 26 5 14 - - 2.0
27/10:30pm 4.9 2.0 4.5 97 0.2 SE 9 17 5 9 - - 2.0
27/10:00pm 5.0 2.5 4.6 97 0.2 SE 7 13 4 7 - - 2.0
27/09:30pm 4.8 2.2 4.4 97 0.2 SE 7 22 4 12 - - 2.0
27/09:00pm 4.8 2.4 4.4 97 0.2 SE 6 15 3 8 - - 2.0
27/08:30pm 5.2 2.7 4.8 97 0.2 SE 7 17 4 9 - - 2.0
27/08:00pm 5.3 2.8 4.7 96 0.3 SSE 7 20 4 11 - - 2.0
27/07:30pm 5.0 2.4 4.3 95 0.3 SSE 7 15 4 8 - - 2.0
27/07:00pm 5.0 2.5 4.0 93 0.4 SSE 6 13 3 7 - - 2.0
27/06:30pm 5.4 2.8 4.2 92 0.5 SSE 7 20 4 11 - - 2.0
27/06:00pm 5.7 3.3 4.5 92 0.5 SSE 6 11 3 6 - - 2.0
27/05:30pm 6.5 4.0 4.8 89 0.8 S 7 13 4 7 - - 2.0
27/05:00pm 6.8 4.6 5.4 91 0.6 SSE 6 17 3 9 - - 2.0
27/04:30pm 6.8 4.4 5.4 91 0.6 S 7 17 4 9 - - 2.0
27/04:00pm 7.2 4.9 5.8 91 0.7 S 7 17 4 9 - - 2.0
27/03:30pm 6.9 4.6 5.8 93 0.5 S 7 13 4 7 - - 2.0
27/03:00pm 7.1 4.6 6.5 96 0.3 S 9 20 5 11 - - 2.0
27/02:30pm 6.4 3.5 4.7 89 0.8 SSW 9 19 5 10 - - 1.6
27/02:00pm 8.6 6.2 7.1 90 0.7 SW 9 19 5 10 - - 0.4
27/01:30pm 7.5 5.1 5.3 86 1.0 SSW 7 13 4 7 - - 0.2
27/01:00pm 7.3 4.9 5.3 87 0.9 SW 7 13 4 7 - - 0.0
27/12:30pm 7.6 5.4 5.2 85 1.1 WSW 6 9 3 5 - - 0.0
27/12:00pm 7.7 5.3 4.5 80 1.5 WSW 6 13 3 7 - - 0.0
27/11:30am 7.7 5.2 4.5 80 1.5 SSW 7 17 4 9 - - 0.0
27/11:00am 7.6 5.1 4.7 82 1.3 SW 7 13 4 7 - - 0.0
27/10:30am 7.4 5.0 4.5 82 1.3 SSW 6 11 3 6 - - 0.0
27/10:00am 6.5 3.8 3.7 82 1.2 SSW 7 13 4 7 - - 0.0
27/09:30am 6.8 4.3 5.0 88 0.8 SW 7 15 4 8 - - 0.0
27/09:00am 6.0 3.9 5.7 98 0.1 SSW 6 11 3 6 - - 0.4
27/08:30am 5.4 3.2 5.1 98 0.1 SW 6 13 3 7 - - 0.4
27/08:00am 4.9 2.4 4.6 98 0.1 SW 7 15 4 8 - - 0.4
27/07:30am 4.5 1.9 4.2 98 0.1 WSW 7 13 4 7 - - 0.4
27/07:00am 4.3 1.7 4.0 98 0.1 WSW 7 17 4 9 - - 0.4
27/06:30am 4.7 2.3 4.4 98 0.1 WSW 6 11 3 6 - - 0.4
27/06:00am 4.6 2.0 4.3 98 0.1 WSW 7 15 4 8 - - 0.4
27/05:30am 4.5 1.9 4.2 98 0.1 WSW 7 15 4 8 - - 0.4
27/05:00am 4.6 2.0 4.3 98 0.1 W 7 13 4 7 - - 0.4
27/04:30am 4.8 2.4 4.5 98 0.1 W 6 9 3 5 - - 0.2
27/04:00am 4.7 2.3 4.4 98 0.1 W 6 9 3 5 - - 0.2
27/03:30am 4.7 2.7 4.4 98 0.1 W 4 7 2 4 - - 0.2
27/03:00am 4.5 2.1 4.1 97 0.2 W 6 9 3 5 - - 0.2
27/02:30am 4.2 2.0 3.6 96 0.3 W 4 7 2 4 - - 0.2
27/02:00am 4.0 1.8 3.1 94 0.4 W 4 6 2 3 - - 0.2
27/01:30am 4.2 1.9 2.9 91 0.6 WSW 4 6 2 3 - - 0.2
27/01:00am 4.5 1.6 1.4 80 1.3 WSW 6 9 3 5 - - 0.2
27/12:30am 4.7 1.6 1.2 78 1.4 WSW 7 11 4 6 - - 0.2
27/12:00am 4.6 1.4 0.7 76 1.6 WSW 7 11 4 6 - - 0.2
 
Date/Time
CST
Temp
°C
App
Temp
°C
Dew
Point
Rel
Hum
%
Delta-T
°C
Wind Press
QNH
hPa
Press
MSL
hPa
Rain
since 9 am
mm
Dir
 
Spd
km/h
Gust
km/h
Spd
kts
Gust
kts
26/11:30pm 4.6 1.6 0.7 76 1.6 WSW 6 9 3 5 - - 0.2
26/11:00pm 4.6 1.8 2.0 83 1.1 WSW 6 9 3 5 - - 0.2
26/10:30pm 4.7 1.8 1.2 78 1.4 WSW 6 9 3 5 - - 0.2
26/10:00pm 4.5 1.7 1.9 83 1.1 WSW 6 9 3 5 - - 0.2
26/09:30pm 4.5 1.9 3.3 92 0.5 WSW 6 9 3 5 - - 0.2
26/09:00pm 4.5 1.9 3.3 92 0.5 WSW 6 9 3 5 - - 0.2
26/08:30pm 4.7 1.8 1.7 81 1.2 WSW 6 9 3 5 - - 0.2
26/08:00pm 4.8 2.6 3.1 89 0.7 WSW 4 7 2 4 - - 0.2
26/07:30pm 5.2 3.0 3.2 87 0.9 SW 4 7 2 4 - - 0.2
26/07:00pm 5.0 3.2 3.2 88 0.8 S 2 6 1 3 - - 0.2
26/06:30pm 5.0 3.2 3.5 90 0.7 SSE 2 7 1 4 - - 0.2
26/06:00pm 5.4 3.7 3.9 90 0.7 ESE 2 4 1 2 - - 0.2
26/05:30pm 6.1 4.0 4.1 87 0.9 ESE 4 4 2 2 - - 0.2
26/05:00pm 6.3 4.4 2.9 79 1.5 SW 2 4 1 2 - - 0.2
26/04:30pm 6.3 4.1 3.5 82 1.2 WSW 4 9 2 5 - - 0.2
26/04:00pm 5.9 3.3 3.4 84 1.1 SW 6 11 3 6 - - 0.2
26/03:30pm 6.0 3.6 4.2 88 0.8 WSW 6 9 3 5 - - 0.2
26/03:00pm 7.0 5.1 4.7 85 1.0 WSW 4 6 2 3 - - 0.0
26/02:30pm 7.7 5.8 3.0 72 2.1 SW 2 6 1 3 - - 0.0
26/02:00pm 8.1 5.8 3.0 70 2.3 SSW 4 7 2 4 - - 0.0
26/01:30pm 8.0 5.8 3.5 73 2.0 SW 4 7 2 4 - - 0.0
26/01:00pm 8.0 5.7 2.9 70 2.2 SSW 4 6 2 3 - - 0.0
26/12:30pm 7.9 6.3 2.6 69 2.3 CALM 0 0 0 0 - - 0.0
26/12:00pm 8.3 5.9 2.3 66 2.6 SSW 4 7 2 4 - - 0.0
26/11:30am 8.5 6.3 3.4 70 2.3 SE 4 11 2 6 - - 0.0
26/11:00am 8.9 6.1 2.9 66 2.7 ESE 7 11 4 6 - - 0.0
26/10:30am 8.6 5.9 2.4 65 2.7 SE 6 11 3 6 - - 0.0
26/10:00am 8.2 5.5 2.7 68 2.4 SSE 6 9 3 5 - - 0.0
26/09:30am 8.1 5.5 3.2 71 2.2 SE 6 13 3 7 - - 0.0
26/09:00am 6.9 4.6 2.8 75 1.8 SE 4 9 2 5 - - 0.0
26/08:30am 6.6 4.3 2.7 76 1.7 SE 4 9 2 5 - - 0.0
26/08:00am 5.8 3.1 2.4 79 1.4 ESE 6 7 3 4 - - 0.0
26/07:30am 5.6 3.2 2.3 79 1.4 ESE 4 9 2 5 - - 0.0
26/07:00am 5.1 2.7 2.3 82 1.2 ESE 4 6 2 3 - - 0.0
26/06:30am 5.0 3.0 2.2 82 1.2 ESE 2 6 1 3 - - 0.0
26/06:00am 5.0 2.6 2.0 81 1.3 ESE 4 6 2 3 - - 0.0
26/05:30am 4.9 2.1 2.1 82 1.2 ESE 6 9 3 5 - - 0.0
26/05:00am 4.8 2.4 2.3 84 1.1 ESE 4 7 2 4 - - 0.0
26/04:30am 4.6 1.9 2.5 86 0.9 ESE 6 9 3 5 - - 0.0
26/04:00am 4.8 2.1 2.8 87 0.9 ESE 6 11 3 6 - - 0.0
26/03:30am 4.5 1.7 3.0 90 0.6 ESE 7 17 4 9 - - 0.0
26/03:00am 4.3 1.5 3.3 93 0.4 ESE 7 15 4 8 - - 0.0
26/02:30am 4.2 1.5 3.8 97 0.2 ESE 7 11 4 6 - - 0.0
26/02:00am 4.1 1.4 3.8 98 0.1 ESE 7 13 4 7 - - 0.0
26/01:30am 4.1 1.0 3.8 98 0.1 ESE 9 15 5 8 - - 0.0
26/01:00am 4.2 0.8 3.9 98 0.1 ESE 11 17 6 9 - - 0.0
26/12:30am 4.6 1.3 4.3 98 0.1 ESE 11 20 6 11 - - 0.0

Other Formats:

Comma delimited format used in spreadsheet applications
http://www.bom.gov.au/fwo/IDS60801/IDS60801.95678.axf

JavaScript Object Notation format (JSON) in row-major order
http://www.bom.gov.au/fwo/IDS60801/IDS60801.95678.json